Skip Navigation Links
NOAA logo - Click to go to the NOAA homepage
NOAA's National Weather Service
Alaska Aviation Weather Unit
  NWS logo - Click to go to the NWS homepage
Left Navbar Graphic     21 AKDT = 05 GMT

   
NOAA is celebrating 200 years of science, service, and stewardship. Visit the NOAA 200th celebration Web site to learn more.
USA.gov is the U.S. Government's official Web portal to all Federal, state and local government Web resources and services.
Facebook
NWS on Facebook

Important Change Regarding the AAWU Web Presence

 

Over the last several months, the AAWU has been working to navigate its webpages to a nationally supported server. Security, as well as other needs, have necessitated the change.  In the process, we have made an effort to enhance the functionality of our website, as well as some of our products. As of June 27, 2017, aawu.arh.noaa.gov will be discontinued. The new AAWU web address is weather.gov/aawu. It is now live and will run in-parallel with the old site until it is discontinued. Please send any feedback or questions regarding the new webpages to nws.ar.aawu.webauthors@noaa.gov.  Thank you for your patience during this time of transition.
AAWU Home :: Display TAF Add Bookmark
PADK 242316Z AUTO 14005KT 10SM OVC011 08/03 A2955=

PADK 242336Z AUTO 17011KT 10SM OVC011 09/04 A2953=

METAR PADK 242356Z AUTO 19009KT 10SM OVC011 09/04 A2952=

PADK 250016Z AUTO 16014G18KT 10SM OVC011 09/04 A2952=

PADK 250036Z AUTO 16008KT 10SM OVC006 09/04 A2951=

METAR PADK 250056Z AUTO 16005KT 10SM OVC006 09/04 A2949=

PADK 250116Z AUTO 12008KT 9SM OVC006 09/04 A2949=

PADK 250136Z AUTO 14009KT 10SM OVC006 09/04 A2948=

METAR PADK 250156Z AUTO 15011G15KT 10SM BKN010 OVC015 09/04 A2948=

PADK 250216Z AUTO 15014KT 10SM OVC015 09/04 A2946=

PADK 250236Z AUTO 14010KT 10SM SCT017 SCT028 OVC055 09/04
     A2945=

METAR PADK 250256Z AUTO 12007KT 10SM SCT017 BKN029 OVC050 10/04
     A2944=

PADK 250316Z AUTO 13009KT 10SM FEW017 SCT030 BKN036 10/04
     A2943=

PADK 250336Z AUTO 09003KT 10SM SCT014 BKN035 OVC042 09/04
     A2942=

METAR PADK 250356Z AUTO 09003KT 10SM BKN012 BKN022 OVC037 09/04
     A2942=

PADK 250416Z AUTO 04003KT 10SM BKN012 OVC022 09/04 A2941=

PADK 250436Z AUTO 00000KT 10SM BKN012 OVC031 09/04 A2940=

METAR PADK 250456Z AUTO 16007KT 4SM BKN012 OVC029 09/04 A2939=


NOAA's National Weather Service
Alaska Aviation Weather Unit
6930 Sand Lake Road
Anchorage, AK 99502-1845
Disclaimer
Credits
Glossary
Privacy Policy
About Us
Career Opportunities
Contact AAWU Internet Services Site last modified: April, 17th 2012